createdAt,value
2022-09-22T00:01:18.563Z,4.40
2022-09-22T00:03:49.304Z,3.57
2022-09-22T00:06:21.568Z,4.07
2022-09-22T00:08:51.629Z,4.17
2022-09-22T00:11:21.173Z,4.00
2022-09-22T00:13:52.111Z,4.10
2022-09-22T00:16:21.964Z,3.97
2022-09-22T00:18:49.708Z,4.13
2022-09-22T00:21:19.823Z,4.37
2022-09-22T00:23:49.710Z,4.47
2022-09-22T00:26:19.551Z,4.83
2022-09-22T00:28:48.621Z,4.40
2022-09-22T00:31:18.825Z,4.43
2022-09-22T00:33:47.366Z,5.10
2022-09-22T00:36:16.376Z,4.53
2022-09-22T00:38:44.271Z,4.70
2022-09-22T00:41:18.802Z,4.33
2022-09-22T00:43:50.339Z,4.27
2022-09-22T00:46:22.687Z,4.77
2022-09-22T00:48:56.350Z,4.27
2022-09-22T00:51:26.670Z,4.30
2022-09-22T00:53:55.454Z,4.20
2022-09-22T00:56:29.300Z,4.17
2022-09-22T00:59:00.169Z,4.30
2022-09-22T01:01:28.112Z,4.23
2022-09-22T01:03:56.802Z,4.47
2022-09-22T01:06:28.813Z,4.97
2022-09-22T01:08:57.494Z,4.43
2022-09-22T01:11:28.264Z,5.00
2022-09-22T01:14:03.823Z,3.70
2022-09-22T01:16:46.072Z,4.90
2022-09-22T01:19:50.943Z,4.47
2022-09-22T01:22:35.761Z,3.80
2022-09-22T01:25:24.358Z,4.17
2022-09-22T01:28:20.970Z,5.00
2022-09-22T01:30:58.602Z,4.40
2022-09-22T01:33:38.952Z,4.43
2022-09-22T01:36:15.531Z,4.83
2022-09-22T01:38:54.315Z,4.33
2022-09-22T01:41:39.994Z,3.97
2022-09-22T01:44:13.864Z,4.50
2022-09-22T01:46:51.282Z,4.60
2022-09-22T01:49:21.100Z,5.20
2022-09-22T01:51:51.985Z,5.40
2022-09-22T01:54:25.972Z,4.93
2022-09-22T01:56:59.467Z,4.70
2022-09-22T01:59:31.705Z,4.40
2022-09-22T02:02:04.546Z,4.60
2022-09-22T02:04:40.785Z,4.30
2022-09-22T02:07:13.650Z,3.90
2022-09-22T02:09:43.174Z,3.70
2022-09-22T02:12:10.873Z,3.93
2022-09-22T02:14:38.612Z,4.90
2022-09-22T02:17:07.804Z,4.30
2022-09-22T02:19:38.336Z,4.20
2022-09-22T02:22:07.086Z,3.73
2022-09-22T02:24:37.575Z,3.90
2022-09-22T02:27:08.203Z,4.17
2022-09-22T02:29:40.500Z,3.57
2022-09-22T02:32:15.790Z,3.60
2022-09-22T02:34:45.585Z,3.47
2022-09-22T02:37:22.615Z,4.00
2022-09-22T02:40:00.910Z,3.73
2022-09-22T02:42:32.180Z,4.10
2022-09-22T02:45:08.305Z,3.57
2022-09-22T02:47:42.059Z,3.60
2022-09-22T02:50:12.236Z,3.97
2022-09-22T02:52:40.949Z,3.30
2022-09-22T02:55:10.627Z,3.30
2022-09-22T02:57:38.319Z,3.13
2022-09-22T03:00:07.618Z,4.67
2022-09-22T03:02:35.230Z,3.67
2022-09-22T03:05:05.465Z,3.90
2022-09-22T03:07:33.062Z,3.60
2022-09-22T03:10:00.761Z,3.83
2022-09-22T03:12:28.434Z,4.37
2022-09-22T03:14:56.022Z,3.93
2022-09-22T03:17:23.747Z,4.03
2022-09-22T03:19:51.427Z,4.23
2022-09-22T03:22:20.296Z,4.47
2022-09-22T03:24:47.929Z,4.10
2022-09-22T03:27:15.497Z,4.17
2022-09-22T03:29:43.135Z,4.30
2022-09-22T03:32:10.822Z,4.33
2022-09-22T03:34:38.694Z,4.53
2022-09-22T03:37:06.357Z,4.00
2022-09-22T03:39:35.283Z,4.27
2022-09-22T03:42:03.081Z,3.90
2022-09-22T03:44:30.871Z,4.00
2022-09-22T03:46:58.671Z,4.10
2022-09-22T03:49:26.287Z,3.97
2022-09-22T03:51:54.445Z,3.60
2022-09-22T03:54:22.610Z,4.57
2022-09-22T03:56:52.423Z,3.87
2022-09-22T03:59:20.226Z,3.97
2022-09-22T04:01:47.958Z,4.27
2022-09-22T04:04:15.649Z,4.00
2022-09-22T04:06:43.726Z,4.70
2022-09-22T04:09:11.575Z,3.80
2022-09-22T04:11:39.337Z,3.90
2022-09-22T04:14:08.326Z,4.20
2022-09-22T04:16:36.046Z,4.43
2022-09-22T04:19:04.977Z,4.10
2022-09-22T04:21:33.087Z,3.70
2022-09-22T04:24:00.956Z,4.10
2022-09-22T04:26:28.614Z,4.50
2022-09-22T04:28:56.259Z,4.00
2022-09-22T04:31:25.306Z,4.40
2022-09-22T04:33:53.170Z,4.10
2022-09-22T04:36:20.756Z,3.70
2022-09-22T04:38:48.313Z,4.20
2022-09-22T04:41:16.027Z,4.30
2022-09-22T04:43:43.790Z,4.33
2022-09-22T04:46:11.494Z,4.00
2022-09-22T04:48:40.596Z,4.10
2022-09-22T04:51:08.207Z,4.53
2022-09-22T04:53:35.995Z,4.07
2022-09-22T04:56:03.660Z,4.03
2022-09-22T04:58:31.646Z,4.63
2022-09-22T05:01:03.754Z,4.57
2022-09-22T05:03:31.430Z,4.60
2022-09-22T05:06:00.450Z,4.43
2022-09-22T05:08:28.250Z,4.23
2022-09-22T05:10:56.715Z,5.30
2022-09-22T05:13:25.374Z,4.70
2022-09-22T05:15:52.906Z,4.50
2022-09-22T05:18:21.119Z,4.23
2022-09-22T05:20:48.684Z,4.70
2022-09-22T05:23:17.633Z,4.73
2022-09-22T05:25:45.241Z,4.70
2022-09-22T05:28:13.474Z,4.47
2022-09-22T05:30:41.136Z,4.70
2022-09-22T05:33:08.931Z,5.30
2022-09-22T05:35:37.136Z,5.53
2022-09-22T05:38:04.919Z,6.40
2022-09-22T05:40:33.901Z,4.80
2022-09-22T05:43:01.559Z,5.33
2022-09-22T05:45:29.191Z,4.73
2022-09-22T05:47:58.126Z,4.77
2022-09-22T05:50:25.702Z,5.60
2022-09-22T05:53:03.451Z,4.03
2022-09-22T05:55:31.056Z,4.17
2022-09-22T05:58:01.036Z,4.90
2022-09-22T06:00:29.613Z,4.97
2022-09-22T06:02:57.289Z,3.40
2022-09-22T06:05:25.241Z,3.10
2022-09-22T06:08:01.714Z,2.90
2022-09-22T06:10:29.848Z,3.17
2022-09-22T06:13:01.982Z,3.73
2022-09-22T06:15:31.020Z,3.00
2022-09-22T06:17:58.603Z,3.10
2022-09-22T06:20:26.390Z,3.20
2022-09-22T06:22:55.093Z,3.20
2022-09-22T06:25:23.259Z,3.93
2022-09-22T06:28:00.252Z,3.13
2022-09-22T06:30:31.258Z,3.33
2022-09-22T06:32:59.325Z,3.60
2022-09-22T06:35:28.112Z,3.40
2022-09-22T06:37:59.631Z,3.63
2022-09-22T06:40:27.859Z,3.43
2022-09-22T06:42:58.087Z,3.10
2022-09-22T06:45:27.065Z,3.17
2022-09-22T06:48:00.846Z,3.23
2022-09-22T06:50:31.109Z,2.97
2022-09-22T06:53:00.965Z,3.20
2022-09-22T06:55:28.989Z,3.33
2022-09-22T06:57:59.540Z,3.70
2022-09-22T07:00:31.269Z,3.67
2022-09-22T07:03:08.696Z,3.40
2022-09-22T07:05:38.576Z,3.03
2022-09-22T07:08:09.052Z,3.20
2022-09-22T07:10:38.127Z,3.33
2022-09-22T07:13:06.937Z,3.23
2022-09-22T07:15:36.083Z,3.17
2022-09-22T07:18:06.336Z,3.03
2022-09-22T07:20:35.541Z,3.50
2022-09-22T07:23:03.278Z,3.63
2022-09-22T07:25:35.807Z,4.17
2022-09-22T07:28:05.396Z,3.17
2022-09-22T07:30:36.264Z,3.10
2022-09-22T07:33:05.688Z,2.83
2022-09-22T07:35:35.176Z,2.93
2022-09-22T07:38:03.665Z,3.37
2022-09-22T07:40:32.433Z,3.10
2022-09-22T07:43:00.224Z,2.50
2022-09-22T07:45:27.779Z,3.23
2022-09-22T07:48:13.208Z,3.10
2022-09-22T07:50:42.153Z,3.23
2022-09-22T07:53:09.856Z,3.20
2022-09-22T07:55:38.861Z,3.00
2022-09-22T07:58:10.374Z,3.03
2022-09-22T08:00:39.608Z,3.03
2022-09-22T08:03:07.574Z,3.53
2022-09-22T08:05:35.136Z,3.13
2022-09-22T08:08:06.003Z,3.20
2022-09-22T08:10:35.702Z,3.50
2022-09-22T08:13:04.452Z,3.40
2022-09-22T08:15:32.066Z,3.00
2022-09-22T08:17:59.596Z,2.97
2022-09-22T08:20:28.882Z,3.20
2022-09-22T08:22:58.109Z,3.40
2022-09-22T08:25:27.145Z,3.40
2022-09-22T08:27:54.733Z,3.10
2022-09-22T08:30:22.288Z,2.97
2022-09-22T08:32:49.947Z,3.60
2022-09-22T08:35:18.352Z,3.03
2022-09-22T08:37:45.923Z,3.07
2022-09-22T08:40:21.045Z,3.00
2022-09-22T08:42:53.951Z,3.00
2022-09-22T08:45:32.005Z,3.10
2022-09-22T08:48:24.777Z,2.83
2022-09-22T08:51:14.257Z,3.00
2022-09-22T08:53:47.609Z,2.73
2022-09-22T08:56:23.156Z,2.73
2022-09-22T08:58:58.944Z,2.87
2022-09-22T09:01:43.487Z,2.80
2022-09-22T09:04:36.463Z,2.97
2022-09-22T09:07:12.559Z,2.60
2022-09-22T09:09:51.061Z,2.97
2022-09-22T09:12:40.699Z,2.30
2022-09-22T09:15:41.607Z,2.87
2022-09-22T09:18:15.647Z,2.50
2022-09-22T09:20:46.200Z,2.93
2022-09-22T09:23:18.858Z,2.97
2022-09-22T09:25:50.806Z,2.40
2022-09-22T09:28:27.717Z,2.60
2022-09-22T09:31:04.833Z,2.53
2022-09-22T09:33:40.351Z,2.70
2022-09-22T09:38:48.333Z,2.50
2022-09-22T09:41:21.434Z,3.17
2022-09-22T09:43:53.243Z,2.50
2022-09-22T09:46:36.788Z,2.83
2022-09-22T09:49:08.850Z,2.27
2022-09-22T09:51:40.454Z,3.13
2022-09-22T09:54:16.716Z,2.90
2022-09-22T09:57:04.168Z,1.80
2022-09-22T09:59:49.531Z,2.70
2022-09-22T10:02:22.390Z,2.10
2022-09-22T10:04:52.905Z,2.13
2022-09-22T10:07:24.574Z,1.93
2022-09-22T10:09:53.163Z,2.40
2022-09-22T10:12:27.595Z,1.90
2022-09-22T10:14:57.648Z,1.60
2022-09-22T10:17:29.975Z,2.17
2022-09-22T10:20:21.282Z,1.83
2022-09-22T10:22:49.742Z,1.70
2022-09-22T10:25:23.982Z,2.30
2022-09-22T10:28:03.243Z,1.93
2022-09-22T10:30:32.959Z,2.00
2022-09-22T10:33:18.042Z,1.70
2022-09-22T10:35:47.839Z,1.83
2022-09-22T10:38:19.427Z,1.73
2022-09-22T10:40:51.919Z,1.67
2022-09-22T10:43:41.117Z,1.80
2022-09-22T10:46:37.477Z,1.80
2022-09-22T10:49:13.532Z,1.40
2022-09-22T10:52:01.120Z,1.60
2022-09-22T10:55:04.012Z,1.47
2022-09-22T10:57:53.049Z,2.00
2022-09-22T11:00:22.351Z,1.50
2022-09-22T11:03:37.733Z,1.63
2022-09-22T11:06:42.660Z,1.90
2022-09-22T11:09:37.073Z,1.40
2022-09-22T11:12:18.999Z,1.73
2022-09-22T11:15:06.312Z,1.47
2022-09-22T11:18:00.483Z,1.60
2022-09-22T11:20:36.188Z,1.17
2022-09-22T11:23:32.217Z,1.70
2022-09-22T11:26:18.943Z,1.77
2022-09-22T11:29:01.170Z,1.60
2022-09-22T11:31:42.273Z,1.50
2022-09-22T11:34:43.141Z,1.20
2022-09-22T11:37:26.653Z,1.33
2022-09-22T11:40:17.103Z,1.53
2022-09-22T11:42:52.423Z,1.47
2022-09-22T11:45:37.099Z,1.73
2022-09-22T11:48:16.588Z,1.30
2022-09-22T11:50:58.241Z,1.40
2022-09-22T11:53:36.652Z,1.60
2022-09-22T11:56:34.047Z,1.70
2022-09-22T11:59:06.665Z,1.50
2022-09-22T12:01:40.108Z,1.43
2022-09-22T12:04:19.805Z,1.60
2022-09-22T12:06:50.373Z,1.00
2022-09-22T12:09:35.812Z,1.30
2022-09-22T12:12:11.664Z,1.67
2022-09-22T12:14:40.900Z,1.20
2022-09-22T12:17:16.792Z,1.30
2022-09-22T12:19:55.778Z,1.43
2022-09-22T12:22:28.787Z,1.57
2022-09-22T12:24:56.340Z,1.40
2022-09-22T12:27:27.421Z,1.90
2022-09-22T12:29:57.884Z,1.00
2022-09-22T12:32:29.437Z,1.17
2022-09-22T12:34:59.248Z,1.40
2022-09-22T12:37:30.738Z,1.40
2022-09-22T12:40:07.201Z,1.20
2022-09-22T12:42:39.262Z,1.20
2022-09-22T12:45:10.844Z,1.17
2022-09-22T12:47:40.844Z,1.60
2022-09-22T12:50:32.953Z,1.60
2022-09-22T12:53:04.713Z,1.00
2022-09-22T12:55:38.331Z,1.40
2022-09-22T12:58:42.689Z,1.40
2022-09-22T13:01:32.900Z,1.27
2022-09-22T13:04:14.230Z,1.33
2022-09-22T13:06:58.775Z,1.63
2022-09-22T13:09:29.956Z,1.37
2022-09-22T13:12:25.131Z,2.10
2022-09-22T13:15:16.406Z,1.30
2022-09-22T13:17:45.909Z,0.90
2022-09-22T13:20:19.057Z,1.10
2022-09-22T13:22:46.965Z,1.30
2022-09-22T13:25:16.413Z,1.30
2022-09-22T13:27:44.992Z,1.73
2022-09-22T13:30:15.650Z,1.33
2022-09-22T13:32:49.790Z,1.33
2022-09-22T13:35:28.164Z,1.37
2022-09-22T13:37:57.543Z,1.40
2022-09-22T13:40:29.801Z,1.13
2022-09-22T13:43:00.673Z,1.57
2022-09-22T13:45:30.438Z,1.40
2022-09-22T13:48:08.290Z,1.40
2022-09-22T13:50:41.739Z,1.10
2022-09-22T13:53:09.677Z,1.30
2022-09-22T13:55:38.482Z,1.27
2022-09-22T13:58:10.109Z,1.30
2022-09-22T14:01:11.428Z,1.40
2022-09-22T14:03:38.441Z,1.30
2022-09-22T14:06:10.176Z,1.70
2022-09-22T14:08:37.994Z,1.20
2022-09-22T14:11:09.359Z,1.17
2022-09-22T14:13:41.417Z,1.27
2022-09-22T14:16:16.330Z,1.20
2022-09-22T14:18:46.971Z,1.10
2022-09-22T14:21:14.774Z,1.73
2022-09-22T14:23:48.701Z,1.20
2022-09-22T14:26:28.291Z,1.30
2022-09-22T14:28:59.037Z,1.33
2022-09-22T14:31:33.111Z,1.30
2022-09-22T14:34:03.756Z,2.23
2022-09-22T14:36:31.563Z,1.20
2022-09-22T14:39:10.300Z,1.33
2022-09-22T14:41:38.570Z,1.43
2022-09-22T14:44:26.381Z,1.60
2022-09-22T14:46:57.220Z,1.10
2022-09-22T14:49:37.978Z,1.33
2022-09-22T14:52:11.950Z,1.10
2022-09-22T14:54:40.266Z,1.30
2022-09-22T14:57:09.301Z,1.13
2022-09-22T14:59:57.103Z,1.27
2022-09-22T15:02:36.151Z,1.30
2022-09-22T15:05:05.404Z,1.57
2022-09-22T15:07:36.064Z,1.40
2022-09-22T15:10:07.012Z,1.20
2022-09-22T15:12:40.797Z,1.30
2022-09-22T15:15:19.710Z,1.23
2022-09-22T15:18:07.692Z,0.83
2022-09-22T15:20:42.562Z,1.50
2022-09-22T15:23:15.857Z,1.23
2022-09-22T15:25:43.877Z,1.43
2022-09-22T15:28:16.633Z,1.10
2022-09-22T15:30:46.313Z,1.70
2022-09-22T15:33:16.489Z,1.07
2022-09-22T15:35:46.422Z,1.70
2022-09-22T15:38:17.732Z,1.50
2022-09-22T15:40:46.635Z,1.10
2022-09-22T15:43:19.138Z,1.30
2022-09-22T15:45:51.332Z,1.20
2022-09-22T15:48:28.668Z,1.30
2022-09-22T15:50:58.573Z,1.30
2022-09-22T15:53:26.620Z,1.27
2022-09-22T15:55:55.622Z,1.00
2022-09-22T15:58:24.202Z,1.20
2022-09-22T16:00:53.121Z,1.30
2022-09-22T16:03:24.224Z,1.30
2022-09-22T16:05:56.960Z,1.33
2022-09-22T16:08:28.894Z,1.10
2022-09-22T16:10:57.435Z,1.30
2022-09-22T16:13:25.040Z,1.30
2022-09-22T16:15:53.695Z,1.27
2022-09-22T16:18:23.164Z,1.53
2022-09-22T16:20:51.768Z,1.30
2022-09-22T16:23:19.915Z,1.47
2022-09-22T16:25:53.745Z,1.47
2022-09-22T16:28:21.422Z,1.47
2022-09-22T16:30:48.995Z,1.70
2022-09-22T16:33:16.712Z,1.40
2022-09-22T16:35:45.824Z,1.23
2022-09-22T16:38:13.739Z,1.10
2022-09-22T16:40:42.099Z,1.47
2022-09-22T16:43:10.865Z,1.50
2022-09-22T16:45:56.381Z,1.30
2022-09-22T16:48:24.193Z,1.30
2022-09-22T16:50:56.139Z,1.37
2022-09-22T16:53:24.138Z,1.30
2022-09-22T16:55:51.735Z,1.43
2022-09-22T16:58:20.009Z,1.40
2022-09-22T17:00:47.664Z,1.57
2022-09-22T17:03:15.335Z,1.57
2022-09-22T17:05:42.942Z,1.60
2022-09-22T17:08:12.026Z,1.57
2022-09-22T17:10:39.752Z,1.63
2022-09-22T17:13:07.807Z,1.20
2022-09-22T17:15:35.883Z,1.63
2022-09-22T17:18:04.565Z,1.50
2022-09-22T17:20:32.194Z,1.37
2022-09-22T17:22:59.772Z,1.50
2022-09-22T17:25:29.059Z,1.80
2022-09-22T17:27:57.603Z,1.43
2022-09-22T17:30:25.293Z,1.37
2022-09-22T17:32:53.103Z,1.73
2022-09-22T17:35:20.657Z,1.40
2022-09-22T17:37:51.741Z,1.70
2022-09-22T17:40:19.590Z,1.50
2022-09-22T17:42:48.711Z,1.73
2022-09-22T17:45:16.554Z,1.60
2022-09-22T17:48:01.924Z,1.80
2022-09-22T17:50:47.080Z,2.50
2022-09-22T17:53:32.455Z,1.70
2022-09-22T17:56:04.926Z,2.00
2022-09-22T17:58:34.017Z,1.90
2022-09-22T18:01:01.686Z,2.17
2022-09-22T18:03:29.338Z,2.60
2022-09-22T18:05:58.256Z,2.17
2022-09-22T18:08:25.968Z,2.17
2022-09-22T18:10:54.339Z,1.80
2022-09-22T18:13:22.128Z,1.60
2022-09-22T18:15:52.199Z,1.90
2022-09-22T18:18:19.854Z,1.80
2022-09-22T18:20:48.331Z,2.60
2022-09-22T18:23:16.627Z,2.00
2022-09-22T18:25:44.377Z,2.83
2022-09-22T18:28:11.979Z,2.20
2022-09-22T18:30:40.259Z,2.20
2022-09-22T18:33:10.802Z,2.33
2022-09-22T18:35:38.517Z,2.33
2022-09-22T18:38:06.126Z,2.10
2022-09-22T18:40:34.823Z,2.20
2022-09-22T18:43:02.512Z,2.53
2022-09-22T18:45:30.139Z,1.93
2022-09-22T18:47:59.198Z,2.33
2022-09-22T18:50:34.395Z,1.80
2022-09-22T18:53:02.618Z,2.43
2022-09-22T18:55:32.623Z,2.93
2022-09-22T18:58:00.964Z,2.73
2022-09-22T19:00:28.685Z,3.07
2022-09-22T19:02:56.383Z,3.07
2022-09-22T19:05:24.080Z,3.10
2022-09-22T19:07:54.819Z,2.30
2022-09-22T19:10:23.347Z,2.73
2022-09-22T19:12:51.108Z,3.10
2022-09-22T19:15:19.671Z,3.07
2022-09-22T19:17:49.452Z,3.23
2022-09-22T19:20:20.914Z,3.00
2022-09-22T19:22:49.215Z,3.00
2022-09-22T19:25:21.456Z,2.90
2022-09-22T19:27:49.644Z,2.80
2022-09-22T19:30:21.903Z,3.50
2022-09-22T19:32:51.209Z,3.97
2022-09-22T19:35:19.461Z,2.60
2022-09-22T19:37:47.041Z,2.87
2022-09-22T19:40:18.633Z,3.50
2022-09-22T19:42:48.669Z,2.97
2022-09-22T19:45:16.353Z,2.90
2022-09-22T19:47:44.040Z,3.60
2022-09-22T19:50:11.697Z,3.30
2022-09-22T19:52:39.481Z,3.43
2022-09-22T19:55:09.076Z,3.50
2022-09-22T19:57:37.245Z,2.60
2022-09-22T20:00:07.873Z,3.00
2022-09-22T20:02:35.479Z,3.20
2022-09-22T20:05:03.095Z,3.70
2022-09-22T20:07:31.782Z,2.63
2022-09-22T20:10:02.258Z,3.27
2022-09-22T20:12:30.004Z,3.63
2022-09-22T20:14:57.532Z,3.50
2022-09-22T20:17:27.676Z,3.50
2022-09-22T20:19:55.536Z,3.00
2022-09-22T20:22:25.295Z,3.27
2022-09-22T20:24:55.725Z,3.40
2022-09-22T20:27:25.263Z,3.67
2022-09-22T20:29:56.989Z,3.97
2022-09-22T20:32:27.256Z,3.50
2022-09-22T20:34:56.244Z,3.10
2022-09-22T20:37:24.945Z,3.53
2022-09-22T20:39:52.670Z,3.50
2022-09-22T20:42:20.404Z,3.50
2022-09-22T20:44:48.995Z,3.03
2022-09-22T20:47:18.266Z,3.13
2022-09-22T20:49:51.561Z,3.03
2022-09-22T20:52:21.014Z,3.60
2022-09-22T20:54:49.112Z,3.30
2022-09-22T20:57:16.773Z,3.50
2022-09-22T20:59:45.783Z,3.53
2022-09-22T21:02:14.917Z,3.50
2022-09-22T21:04:43.239Z,3.73
2022-09-22T21:07:12.557Z,3.50
2022-09-22T21:09:58.019Z,4.17
2022-09-22T21:12:31.282Z,4.20
2022-09-22T21:14:59.184Z,4.53
2022-09-22T21:17:29.592Z,3.90
2022-09-22T21:19:58.120Z,4.40
2022-09-22T21:22:28.221Z,4.43
2022-09-22T21:24:56.621Z,4.60
2022-09-22T21:27:24.941Z,4.93
2022-09-22T21:29:53.090Z,5.00
2022-09-22T21:32:20.804Z,4.63
2022-09-22T21:34:48.470Z,4.70
2022-09-22T21:37:16.023Z,5.87
2022-09-22T21:39:44.948Z,5.07
2022-09-22T21:42:12.582Z,5.80
2022-09-22T21:44:40.199Z,4.83
2022-09-22T21:47:07.929Z,5.30
2022-09-22T21:49:37.771Z,4.50
2022-09-22T21:52:05.419Z,4.20
2022-09-22T21:54:32.969Z,5.03
2022-09-22T21:57:01.827Z,4.87
2022-09-22T21:59:31.263Z,4.13
2022-09-22T22:01:59.038Z,4.00
2022-09-22T22:04:26.825Z,4.33
2022-09-22T22:06:54.954Z,4.83
2022-09-22T22:09:24.063Z,4.23
2022-09-22T22:11:55.373Z,4.17
2022-09-22T22:14:25.545Z,4.27
2022-09-22T22:16:54.861Z,4.70
2022-09-22T22:19:25.736Z,5.23
2022-09-22T22:21:54.192Z,4.80
2022-09-22T22:24:33.903Z,4.47
2022-09-22T22:27:06.061Z,5.10
2022-09-22T22:29:36.216Z,4.43
2022-09-22T22:32:05.370Z,5.37
2022-09-22T22:34:33.019Z,4.90
2022-09-22T22:37:03.800Z,4.93
2022-09-22T22:39:32.238Z,4.30
2022-09-22T22:41:59.933Z,4.73
2022-09-22T22:44:27.482Z,4.53
2022-09-22T22:46:56.743Z,3.90
2022-09-22T22:49:24.412Z,4.33
2022-09-22T22:51:52.364Z,3.90
2022-09-22T22:54:19.987Z,4.53
2022-09-22T22:56:51.067Z,4.30
2022-09-22T22:59:19.646Z,4.07
2022-09-22T23:01:47.333Z,4.50
2022-09-22T23:04:17.358Z,4.23
2022-09-22T23:06:45.072Z,4.77
2022-09-22T23:09:14.906Z,3.67
2022-09-22T23:11:43.451Z,3.50
2022-09-22T23:14:13.002Z,4.10
2022-09-22T23:16:43.080Z,3.60
2022-09-22T23:19:13.442Z,3.70
2022-09-22T23:21:43.074Z,4.50
2022-09-22T23:24:15.267Z,4.63
2022-09-22T23:26:42.930Z,3.73
2022-09-22T23:29:10.968Z,3.83
2022-09-22T23:31:38.683Z,3.80
2022-09-22T23:34:06.291Z,4.40
2022-09-22T23:36:33.860Z,4.17
2022-09-22T23:39:04.296Z,4.40
2022-09-22T23:41:33.077Z,4.23
2022-09-22T23:44:00.992Z,5.13
2022-09-22T23:46:28.845Z,4.50
2022-09-22T23:48:56.490Z,4.43
2022-09-22T23:51:24.122Z,4.10
2022-09-22T23:53:51.948Z,3.90
2022-09-22T23:56:20.886Z,4.20
2022-09-22T23:58:48.622Z,3.83
